Time;durP1;ratioP1;P1;durP2;ratioP2;P2;SDS_P1;SDS_P2;PMS_P1;PMS_P2;Temp;Humidity;BMP_temperature;BMP_pressure;BME280_temperature;BME280_humidity;BME280_pressure;Samples;Min_cycle;Max_cycle;Signal;HPM_P1;HPM_P2
2024/02/24 00:01:07;;;;;;;;;7.00;6.00;;;;;13.12;100.00;97288.56;6011253;29;96843;-56
2024/02/24 00:04:11;;;;;;;;;7.20;6.60;;;;;13.15;100.00;97274.47;6022396;28;96860;-57
2024/02/24 00:07:14;;;;;;;;;7.00;6.00;;;;;13.20;100.00;97273.63;6005679;29;96585;-57
2024/02/24 00:10:17;;;;;;;;;5.20;4.80;;;;;13.02;100.00;97267.72;6023492;28;96808;-57
2024/02/24 00:13:21;;;;;;;;;6.00;6.00;;;;;12.91;100.00;97271.53;6022188;29;96046;-57
2024/02/24 00:16:25;;;;;;;;;5.00;5.00;;;;;12.66;100.00;97246.50;6022361;29;96296;-56
2024/02/24 00:19:28;;;;;;;;;6.40;6.40;;;;;12.75;100.00;97261.06;6022756;28;96605;-57
2024/02/24 00:22:31;;;;;;;;;6.00;6.00;;;;;12.66;100.00;97243.78;6029039;28;96441;-55
2024/02/24 00:25:34;;;;;;;;;8.00;7.00;;;;;12.45;100.00;97254.66;6045668;28;96320;-55
2024/02/24 00:28:39;;;;;;;;;5.80;5.20;;;;;12.53;100.00;97240.56;6026507;28;96326;-56
2024/02/24 00:31:42;;;;;;;;;5.40;5.00;;;;;12.51;100.00;97236.53;6030306;28;96416;-55
2024/02/24 00:34:45;;;;;;;;;5.00;5.00;;;;;12.65;100.00;97236.75;6045154;28;96347;-55
2024/02/24 00:37:48;;;;;;;;;4.80;4.80;;;;;12.75;100.00;97231.31;6033651;28;96432;-56
2024/02/24 00:40:51;;;;;;;;;6.00;5.00;;;;;12.73;100.00;97214.56;6031158;28;97711;-55
2024/02/24 00:43:56;;;;;;;;;6.60;6.00;;;;;12.77;100.00;97213.72;6043872;28;96642;-56
2024/02/24 00:46:59;;;;;;;;;5.25;5.25;;;;;12.80;100.00;97223.19;6021468;29;96396;-55
2024/02/24 00:50:02;;;;;;;;;7.25;6.25;;;;;12.80;100.00;97228.59;6021352;29;97776;-55
2024/02/24 00:53:05;;;;;;;;;7.40;6.00;;;;;12.93;100.00;97236.94;6021278;28;96392;-55
2024/02/24 00:56:08;;;;;;;;;7.00;6.33;;;;;12.89;100.00;97235.88;6020482;29;96686;-55
2024/02/24 00:59:13;;;;;;;;;8.80;8.00;;;;;13.02;100.00;97221.75;6021182;28;96527;-56
2024/02/24 01:02:16;;;;;;;;;6.00;6.00;;;;;13.16;100.00;97215.75;6021256;29;96392;-55
2024/02/24 01:05:20;;;;;;;;;7.00;6.00;;;;;13.27;100.00;97215.41;6020746;28;96452;-55
2024/02/24 01:08:23;;;;;;;;;5.50;5.50;;;;;13.13;100.00;97203.59;6021554;29;96531;-55
2024/02/24 01:11:26;;;;;;;;;6.00;6.00;;;;;13.14;100.00;97216.03;6040069;28;96890;-56
2024/02/24 01:14:31;;;;;;;;;7.00;5.00;;;;;13.04;100.00;97207.94;6044680;28;96812;-56
2024/02/24 01:17:35;;;;;;;;;8.00;7.00;;;;;13.05;100.00;97203.34;6044561;28;96924;-55
2024/02/24 01:20:38;;;;;;;;;7.25;7.25;;;;;12.94;100.00;97200.69;6024718;28;96956;-55
2024/02/24 01:23:42;;;;;;;;;8.00;6.50;;;;;12.82;100.00;97181.25;6020680;29;96327;-55
2024/02/24 01:26:45;;;;;;;;;8.60;7.60;;;;;12.75;100.00;97172.66;6004465;28;97284;-55
2024/02/24 01:29:50;;;;;;;;;8.40;8.00;;;;;13.11;100.00;97204.91;6031902;28;96580;-54
2024/02/24 01:32:53;;;;;;;;;10.25;9.00;;;;;12.95;100.00;97193.38;6006751;29;98518;-53
2024/02/24 01:35:56;;;;;;;;;13.80;12.00;;;;;13.12;100.00;97196.56;6029509;28;96972;-53
2024/02/24 01:39:00;;;;;;;;;11.00;10.00;;;;;13.21;100.00;97194.06;6040987;28;96466;-53
2024/02/24 01:42:03;;;;;;;;;9.50;9.00;;;;;12.89;100.00;97173.66;6022886;29;96847;-53
2024/02/24 01:45:08;;;;;;;;;10.40;10.40;;;;;13.19;100.00;97210.59;6023402;29;97052;-53
2024/02/24 01:48:11;;;;;;;;;11.00;10.00;;;;;13.32;100.00;97201.06;6023456;29;96540;-53
2024/02/24 01:51:16;;;;;;;;;10.00;10.00;;;;;13.40;100.00;97205.84;6024718;28;96362;-54
2024/02/24 01:54:20;;;;;;;;;10.00;9.60;;;;;13.38;100.00;97202.63;6047341;28;96640;-53
2024/02/24 01:57:26;;;;;;;;;9.60;8.60;;;;;13.45;100.00;97201.22;6046921;28;96247;-54
2024/02/24 02:00:31;;;;;;;;;11.40;11.40;;;;;13.46;100.00;97215.56;6034138;28;96491;-54
2024/02/24 02:03:36;;;;;;;;;9.00;8.00;;;;;13.41;100.00;97215.59;6040481;23;98392;-58
2024/02/24 02:06:40;;;;;;;;;8.00;7.00;;;;;13.50;100.00;97203.09;6020122;29;96396;-58
2024/02/24 02:09:56;;;;;;;;;9.80;9.20;;;;;13.31;100.00;97207.53;6019908;29;96485;-58
2024/02/24 02:12:59;;;;;;;;;8.75;8.00;;;;;13.33;100.00;97194.56;6016679;29;98396;-58
2024/02/24 02:16:04;;;;;;;;;9.40;8.60;;;;;13.26;100.00;97200.25;6042681;28;96452;-58
2024/02/24 02:19:07;;;;;;;;;11.00;10.00;;;;;13.29;100.00;97204.31;6042950;28;96341;-58
2024/02/24 02:22:14;;;;;;;;;8.00;8.00;;;;;13.32;100.00;97204.56;6043496;28;96434;-58
2024/02/24 02:25:18;;;;;;;;;8.20;7.80;;;;;13.38;100.00;97202.63;6043761;28;97129;-58
2024/02/24 02:28:22;;;;;;;;;10.00;9.00;;;;;13.31;100.00;97196.72;6028768;28;96559;-58
2024/02/24 02:31:25;;;;;;;;;9.80;9.80;;;;;13.42;100.00;97182.84;6042674;28;96522;-58
2024/02/24 02:34:28;;;;;;;;;9.25;9.00;;;;;13.29;100.00;97182.69;6043086;28;96571;-58
2024/02/24 02:37:31;;;;;;;;;11.00;10.50;;;;;13.28;100.00;97189.97;6042911;28;96790;-58
2024/02/24 02:40:36;;;;;;;;;12.00;11.00;;;;;13.28;100.00;97183.75;6042811;28;96300;-58
2024/02/24 02:43:39;;;;;;;;;10.00;10.00;;;;;13.34;100.00;97174.53;6042870;28;97591;-58
2024/02/24 02:46:47;;;;;;;;;10.00;9.60;;;;;13.34;100.00;97186.13;6042568;28;96273;-58
2024/02/24 02:49:50;;;;;;;;;10.00;9.00;;;;;13.44;100.00;97179.84;6042761;28;96420;-58
2024/02/24 02:52:53;;;;;;;;;10.00;9.00;;;;;13.09;100.00;97180.88;6045636;28;96299;-58
2024/02/24 02:55:57;;;;;;;;;12.00;11.00;;;;;12.94;100.00;97172.81;6046623;28;96407;-58
2024/02/24 02:59:00;;;;;;;;;14.00;12.00;;;;;12.95;100.00;97148.19;6028760;28;96701;-58
2024/02/24 03:02:04;;;;;;;;;13.60;10.00;;;;;13.00;100.00;97139.22;6046263;28;96254;-58
2024/02/24 03:05:08;;;;;;;;;10.00;9.80;;;;;12.88;100.00;97126.06;6028197;28;97582;-58
2024/02/24 03:08:12;;;;;;;;;12.00;10.00;;;;;12.73;100.00;97122.63;6033315;28;96397;-58
2024/02/24 03:11:17;;;;;;;;;11.20;10.20;;;;;12.70;100.00;97121.31;6057573;28;96492;-59
2024/02/24 03:14:21;;;;;;;;;10.80;9.80;;;;;12.55;100.00;97103.25;6074495;28;96297;-58
2024/02/24 03:17:24;;;;;;;;;13.00;12.00;;;;;12.51;100.00;97080.56;6065696;28;96292;-59
2024/02/24 03:20:27;;;;;;;;;12.50;11.00;;;;;12.45;100.00;97105.19;6066455;28;96335;-58
2024/02/24 03:23:30;;;;;;;;;14.00;12.00;;;;;12.44;100.00;97092.75;6046211;28;96348;-58
2024/02/24 03:26:35;;;;;;;;;10.75;10.00;;;;;12.44;100.00;97128.72;6028989;28;97069;-58
2024/02/24 03:29:38;;;;;;;;;10.00;9.40;;;;;12.49;100.00;97125.97;6046352;28;96411;-58
2024/02/24 03:32:41;;;;;;;;;12.50;12.25;;;;;12.41;100.00;97134.66;6048800;28;96418;-54
2024/02/24 03:35:44;;;;;;;;;13.00;11.25;;;;;12.70;100.00;97155.63;6064877;28;96380;-54
2024/02/24 03:38:48;;;;;;;;;11.50;10.75;;;;;12.81;100.00;97155.28;6054711;28;96714;-54
2024/02/24 03:41:52;;;;;;;;;10.40;10.00;;;;;12.90;100.00;97159.03;6070498;28;97268;-54
2024/02/24 03:44:55;;;;;;;;;11.50;11.00;;;;;12.77;100.00;97161.53;6054316;28;96378;-53
2024/02/24 03:47:59;;;;;;;;;13.00;11.00;;;;;12.75;100.00;97183.47;6049296;28;96372;-53
2024/02/24 03:51:02;;;;;;;;;10.60;10.00;;;;;12.78;100.00;97180.19;6047568;28;96395;-54
2024/02/24 03:54:05;;;;;;;;;10.00;9.00;;;;;12.66;100.00;97165.41;6048102;28;96330;-53
2024/02/24 03:57:10;;;;;;;;;11.00;9.00;;;;;12.78;100.00;97187.50;6037389;28;98344;-54
2024/02/24 04:00:14;;;;;;;;;10.40;10.00;;;;;12.89;100.00;97202.59;6065344;28;96389;-54
2024/02/24 04:03:17;;;;;;;;;12.00;11.00;;;;;12.91;100.00;97195.81;6051031;28;96496;-54
2024/02/24 04:06:20;;;;;;;;;12.40;11.00;;;;;12.73;100.00;97201.03;6064741;28;96307;-54
2024/02/24 04:09:24;;;;;;;;;12.00;12.00;;;;;12.69;100.00;97206.19;6047437;28;96974;-54
2024/02/24 04:12:28;;;;;;;;;10.80;10.00;;;;;12.76;100.00;97205.88;6050491;28;99296;-53
2024/02/24 04:15:31;;;;;;;;;12.00;11.00;;;;;12.69;100.00;97211.59;6058770;28;96231;-53
2024/02/24 04:18:35;;;;;;;;;11.00;10.20;;;;;12.76;100.00;97211.28;6047756;28;96239;-53
2024/02/24 04:21:38;;;;;;;;;12.00;11.33;;;;;12.82;100.00;97223.72;6045744;28;96615;-54
2024/02/24 04:24:41;;;;;;;;;13.00;11.00;;;;;12.84;100.00;97221.56;6046958;28;96285;-54
2024/02/24 04:27:46;;;;;;;;;10.50;10.50;;;;;12.85;100.00;97226.66;6046265;28;96424;-54
2024/02/24 04:30:49;;;;;;;;;13.50;12.25;;;;;12.85;100.00;97221.25;6045787;28;96637;-55
2024/02/24 04:33:52;;;;;;;;;14.00;12.40;;;;;12.87;100.00;97219.09;6045981;28;96376;-55
2024/02/24 04:36:55;;;;;;;;;11.00;10.50;;;;;12.66;100.00;97227.56;6028493;28;96621;-54
2024/02/24 04:39:58;;;;;;;;;10.00;9.00;;;;;12.85;100.00;97229.38;6047028;28;96279;-54
2024/02/24 04:43:03;;;;;;;;;10.75;9.75;;;;;12.90;100.00;97242.88;6046996;28;97116;-54
2024/02/24 04:46:06;;;;;;;;;10.40;8.60;;;;;13.01;100.00;97249.88;6029829;28;96440;-54
2024/02/24 04:49:09;;;;;;;;;9.80;8.80;;;;;12.93;100.00;97246.94;6056394;28;96583;-54
2024/02/24 04:52:13;;;;;;;;;9.25;9.00;;;;;13.12;100.00;97264.19;6047498;28;96329;-54
2024/02/24 04:55:16;;;;;;;;;9.00;8.00;;;;;13.20;100.00;97265.50;6040560;28;96434;-52
2024/02/24 04:58:20;;;;;;;;;9.00;8.00;;;;;13.29;100.00;97278.19;6046761;28;96549;-54
2024/02/24 05:01:23;;;;;;;;;7.00;7.00;;;;;13.43;100.00;97275.69;6045671;28;96454;-53
2024/02/24 05:04:27;;;;;;;;;7.00;6.00;;;;;13.55;100.00;97292.41;6046163;28;96513;-53
2024/02/24 05:07:30;;;;;;;;;7.00;6.00;;;;;13.60;100.00;97292.38;6045755;28;96997;-53
2024/02/24 05:10:33;;;;;;;;;6.00;5.25;;;;;13.72;100.00;97303.69;6046386;28;96400;-53
2024/02/24 05:13:38;;;;;;;;;5.00;4.60;;;;;13.84;100.00;97296.00;6046776;28;96968;-53
2024/02/24 05:16:42;;;;;;;;;6.20;5.80;;;;;14.01;100.00;97305.66;6039509;28;96640;-53
2024/02/24 05:19:45;;;;;;;;;7.00;6.60;;;;;13.96;100.00;97289.44;6048164;28;96369;-53
2024/02/24 05:22:48;;;;;;;;;7.00;6.00;;;;;14.06;100.00;97311.03;6027542;28;96663;-55
2024/02/24 05:25:51;;;;;;;;;7.00;7.00;;;;;14.00;100.00;97317.59;6041442;28;96267;-54
2024/02/24 05:28:56;;;;;;;;;6.00;6.00;;;;;14.17;100.00;97331.56;6028477;28;96335;-53
2024/02/24 05:31:59;;;;;;;;;7.00;6.60;;;;;14.21;100.00;97343.47;6037148;28;96535;-53
2024/02/24 05:35:02;;;;;;;;;7.00;6.00;;;;;14.26;100.00;97338.81;6045755;28;96398;-53
2024/02/24 05:38:05;;;;;;;;;6.20;6.00;;;;;14.29;100.00;97340.13;6056663;28;96878;-53
2024/02/24 05:41:09;;;;;;;;;7.00;6.00;;;;;14.00;100.00;97348.19;6045231;28;96309;-53
2024/02/24 05:44:14;;;;;;;;;6.00;6.00;;;;;14.00;100.00;97339.25;6027578;28;96482;-53
2024/02/24 05:47:17;;;;;;;;;9.00;9.00;;;;;14.05;100.00;97348.16;6052386;28;96378;-53
2024/02/24 05:50:20;;;;;;;;;6.00;5.40;;;;;13.50;100.00;97337.63;6045657;28;96976;-53
2024/02/24 05:53:23;;;;;;;;;6.00;6.00;;;;;13.63;100.00;97339.75;6028744;28;96342;-53
2024/02/24 05:56:26;;;;;;;;;8.00;7.00;;;;;13.70;100.00;97351.06;6052412;28;96503;-53
2024/02/24 05:59:31;;;;;;;;;6.00;5.00;;;;;13.84;100.00;97346.66;6045616;28;96268;-53
2024/02/24 06:02:34;;;;;;;;;6.75;6.25;;;;;13.47;100.00;97281.34;6045262;28;96385;-53
2024/02/24 06:05:37;;;;;;;;;7.00;7.00;;;;;13.88;100.00;97326.84;6045737;28;96296;-54
2024/02/24 06:08:41;;;;;;;;;8.00;6.00;;;;;13.58;100.00;97302.69;6050822;28;96448;-53
2024/02/24 06:11:44;;;;;;;;;6.00;6.00;;;;;13.78;100.00;97315.31;6045627;28;96364;-54
2024/02/24 06:14:49;;;;;;;;;5.20;5.20;;;;;14.23;100.00;97330.41;6028613;28;96451;-53
2024/02/24 06:17:52;;;;;;;;;5.00;5.00;;;;;14.31;100.00;97336.06;6045558;28;96987;-53
2024/02/24 06:20:55;;;;;;;;;6.00;6.00;;;;;14.20;100.00;97334.50;6045274;28;96387;-53
2024/02/24 06:23:58;;;;;;;;;6.00;6.00;;;;;14.34;100.00;97326.53;6052290;28;96397;-54
2024/02/24 06:27:02;;;;;;;;;4.00;4.00;;;;;14.45;100.00;97338.16;6047275;28;96372;-53
2024/02/24 06:30:08;;;;;;;;;5.00;5.00;;;;;14.25;100.00;97339.09;6049055;28;96325;-53
2024/02/24 06:33:11;;;;;;;;;6.20;4.20;;;;;14.74;100.00;97342.50;6049064;28;96290;-53
2024/02/24 06:36:14;;;;;;;;;4.40;4.40;;;;;15.01;100.00;97349.25;6049885;28;96374;-53
2024/02/24 06:39:17;;;;;;;;;4.00;4.00;;;;;14.93;100.00;97355.31;6047791;28;96949;-53
2024/02/24 06:42:21;;;;;;;;;4.25;4.00;;;;;14.84;100.00;97355.16;6048210;28;96551;-53
2024/02/24 06:45:25;;;;;;;;;4.00;4.00;;;;;15.36;100.00;97338.00;6047646;28;96422;-53
2024/02/24 06:48:28;;;;;;;;;3.00;3.00;;;;;15.68;100.00;97353.69;6048107;28;96421;-53
2024/02/24 06:51:32;;;;;;;;;3.00;3.00;;;;;15.82;100.00;97373.59;6048060;28;96310;-53
2024/02/24 06:54:35;;;;;;;;;4.20;3.80;;;;;15.79;100.00;97376.06;6048001;28;96878;-54
2024/02/24 06:57:38;;;;;;;;;2.40;2.40;;;;;15.71;100.00;97382.97;6047730;28;96602;-53
2024/02/24 07:00:42;;;;;;;;;4.00;4.00;;;;;15.79;100.00;97395.09;6047728;28;96406;-53
2024/02/24 07:03:46;;;;;;;;;3.00;3.00;;;;;15.87;100.00;97383.59;6045455;28;96463;-53
2024/02/24 07:06:49;;;;;;;;;4.00;3.40;;;;;15.93;100.00;97402.25;6048690;28;96414;-54
2024/02/24 07:09:52;;;;;;;;;3.00;3.00;;;;;16.08;100.00;97412.09;6048667;28;96368;-55
2024/02/24 07:12:55;;;;;;;;;2.00;2.00;;;;;16.13;100.00;97409.31;6046619;28;96413;-53
2024/02/24 07:16:00;;;;;;;;;2.00;1.20;;;;;16.37;100.00;97417.44;6047717;28;96715;-53
2024/02/24 07:19:03;;;;;;;;;2.00;2.00;;;;;16.51;100.00;97423.75;6048571;28;96838;-53
2024/02/24 07:22:06;;;;;;;;;2.00;2.00;;;;;16.58;100.00;97421.47;6048449;28;96359;-53
2024/02/24 07:25:09;;;;;;;;;3.00;3.00;;;;;16.62;100.00;97418.97;6048116;28;96843;-53
2024/02/24 07:28:12;;;;;;;;;3.40;3.00;;;;;16.63;100.00;97418.66;6046409;28;96375;-53
2024/02/24 07:31:17;;;;;;;;;2.00;2.00;;;;;16.81;100.00;97428.72;6048524;28;96321;-53
2024/02/24 07:34:20;;;;;;;;;2.00;2.00;;;;;16.95;100.00;97430.69;6047562;28;96393;-54
2024/02/24 07:37:23;;;;;;;;;2.00;2.00;;;;;17.01;100.00;97413.94;6047574;28;96849;-53
2024/02/24 07:40:26;;;;;;;;;0.40;0.40;;;;;17.29;100.00;97440.16;6048389;28;96279;-53
2024/02/24 07:43:30;;;;;;;;;2.33;2.00;;;;;17.32;100.00;97445.00;6044153;28;97194;-53
2024/02/24 07:46:34;;;;;;;;;2.00;1.00;;;;;17.33;100.00;97443.09;6026537;28;99348;-55
2024/02/24 07:49:37;;;;;;;;;2.25;2.25;;;;;17.33;100.00;97454.78;6033884;28;96330;-54
2024/02/24 07:52:40;;;;;;;;;2.00;2.00;;;;;17.46;100.00;97452.38;6046179;28;96342;-53
2024/02/24 07:55:46;;;;;;;;;3.00;3.00;;;;;17.74;100.00;97451.31;6048211;28;96591;-53
2024/02/24 07:58:50;;;;;;;;;2.00;2.00;;;;;18.13;100.00;97446.13;6051415;28;96484;-54
2024/02/24 08:01:54;;;;;;;;;1.00;1.00;;;;;18.71;100.00;97469.19;6048152;28;97175;-53
2024/02/24 08:04:57;;;;;;;;;1.00;1.00;;;;;19.04;100.00;97468.66;6024534;29;96307;-52
2024/02/24 08:08:00;;;;;;;;;2.00;2.00;;;;;18.96;100.00;97477.56;6024994;29;96461;-53
2024/02/24 08:11:04;;;;;;;;;1.00;1.00;;;;;18.89;100.00;97498.25;6023162;29;96790;-55
2024/02/24 08:14:08;;;;;;;;;2.00;2.00;;;;;18.56;100.00;97512.09;6023490;29;96598;-54
2024/02/24 08:17:12;;;;;;;;;2.00;2.00;;;;;18.26;100.00;97520.91;6021319;29;96716;-53
2024/02/24 08:20:16;;;;;;;;;4.00;4.00;;;;;17.72;100.00;97565.31;6017138;29;96396;-53
2024/02/24 08:23:19;;;;;;;;;8.50;6.50;;;;;17.26;100.00;97563.31;6024088;29;96498;-53
2024/02/24 08:26:22;;;;;;;;;7.00;7.00;;;;;16.66;100.00;97583.28;6007052;29;96393;-53
2024/02/24 08:29:26;;;;;;;;;5.80;5.80;;;;;15.95;100.00;97595.75;6024043;28;96311;-54
2024/02/24 08:32:31;;;;;;;;;5.50;5.00;;;;;15.72;100.00;97582.94;6023167;29;96910;-55
2024/02/24 08:35:34;;;;;;;;;3.40;3.40;;;;;16.14;100.00;97598.53;6025729;28;96506;-54
2024/02/24 08:38:38;;;;;;;;;2.00;2.00;;;;;18.55;100.00;97594.28;6023873;29;96988;-54
2024/02/24 08:41:42;;;;;;;;;3.33;3.00;;;;;21.18;100.00;97620.41;6024832;29;97822;-54
2024/02/24 08:44:45;;;;;;;;;2.00;2.00;;;;;24.49;100.00;97625.94;6025435;29;97142;-54
2024/02/24 08:47:50;;;;;;;;;2.00;2.00;;;;;27.09;82.32;97624.75;6021058;29;96674;-55
2024/02/24 08:50:53;;;;;;;;;2.40;2.00;;;;;29.67;69.99;97622.38;6024420;29;96319;-55
2024/02/24 08:53:56;;;;;;;;;2.00;2.00;;;;;30.87;66.06;97620.09;6024941;29;96368;-54
2024/02/24 08:57:00;;;;;;;;;2.00;2.00;;;;;31.58;63.46;97631.75;6024565;28;96294;-54
2024/02/24 09:00:05;;;;;;;;;3.00;3.00;;;;;31.04;62.33;97632.56;6024407;29;96367;-54
2024/02/24 09:03:10;;;;;;;;;2.60;2.60;;;;;29.86;63.25;97627.00;6037040;28;96361;-54
2024/02/24 09:06:14;;;;;;;;;4.00;2.80;;;;;28.44;69.48;97631.13;6052942;28;96331;-55
2024/02/24 09:09:18;;;;;;;;;4.40;4.00;;;;;26.62;76.38;97643.34;6050226;28;96210;-53
2024/02/24 09:12:21;;;;;;;;;4.00;3.80;;;;;25.03;86.04;97648.59;6053657;28;96322;-53
2024/02/24 09:15:24;;;;;;;;;3.00;3.00;;;;;23.36;96.44;97637.56;6048620;28;96847;-54
2024/02/24 09:18:30;;;;;;;;;4.00;4.00;;;;;22.37;100.00;97657.13;6009993;28;98705;-54
2024/02/24 09:21:33;;;;;;;;;5.00;4.25;;;;;22.21;100.00;97661.50;6048677;28;96430;-54
2024/02/24 09:24:36;;;;;;;;;4.00;4.00;;;;;22.15;100.00;97664.75;6049049;28;96326;-54
2024/02/24 09:27:39;;;;;;;;;1.20;1.20;;;;;22.70;100.00;97671.06;6044910;28;96727;-53
2024/02/24 09:30:43;;;;;;;;;2.80;2.00;;;;;23.21;99.79;97680.97;6048609;28;96565;-55
2024/02/24 09:33:54;;;;;;;;;2.40;2.00;;;;;23.25;95.67;97689.38;6048621;28;96378;-54
2024/02/24 09:36:57;;;;;;;;;3.00;3.00;;;;;26.16;83.31;97680.75;6048518;28;96422;-54
2024/02/24 09:40:02;;;;;;;;;2.00;2.00;;;;;27.19;72.07;97692.56;6039745;28;96267;-54
2024/02/24 09:43:08;;;;;;;;;2.00;2.00;;;;;28.57;65.16;97689.19;6049362;28;96273;-56
2024/02/24 09:46:11;;;;;;;;;2.00;2.00;;;;;30.33;62.83;97705.00;6042032;28;96671;-53
2024/02/24 09:49:16;;;;;;;;;2.00;2.00;;;;;31.39;54.38;97722.72;6031544;28;96495;-54
2024/02/24 09:52:19;;;;;;;;;3.00;3.00;;;;;32.62;53.15;97729.38;6044711;28;96368;-58
2024/02/24 09:55:22;;;;;;;;;3.00;3.00;;;;;32.87;50.79;97726.66;6045162;28;96327;-54
2024/02/24 09:58:26;;;;;;;;;3.00;3.00;;;;;31.97;52.88;97726.69;6045257;28;96385;-54
2024/02/24 10:01:29;;;;;;;;;3.00;3.00;;;;;31.55;52.78;97747.53;6043513;28;96637;-55
2024/02/24 10:04:34;;;;;;;;;3.00;2.00;;;;;32.98;50.28;97741.44;6044834;28;96923;-55
2024/02/24 10:07:37;;;;;;;;;3.00;3.00;;;;;33.06;46.02;97743.84;6044754;28;96891;-55
2024/02/24 10:10:40;;;;;;;;;3.00;2.00;;;;;33.06;48.32;97755.00;6030378;28;96591;-55
2024/02/24 10:13:44;;;;;;;;;1.00;1.00;;;;;31.79;50.56;97746.91;6044322;28;96289;-55
2024/02/24 10:16:52;;;;;;;;;2.60;2.60;;;;;31.93;52.10;97748.19;6035232;28;96923;-56
2024/02/24 10:19:56;;;;;;;;;1.00;1.00;;;;;32.69;48.83;97767.69;6043406;28;96673;-55
2024/02/24 10:23:00;;;;;;;;;2.00;2.00;;;;;33.97;46.05;97765.75;6044333;28;96287;-56
2024/02/24 10:26:04;;;;;;;;;1.60;1.60;;;;;34.80;43.77;97756.69;6044198;28;96563;-56
2024/02/24 10:29:07;;;;;;;;;2.00;2.00;;;;;34.58;42.14;97764.38;6043886;28;96278;-56
2024/02/24 10:32:12;;;;;;;;;1.00;1.00;;;;;34.53;42.08;97754.41;6044180;28;96383;-56
2024/02/24 10:35:18;;;;;;;;;2.00;2.00;;;;;34.83;42.32;97767.88;6046313;28;96243;-55
2024/02/24 10:38:22;;;;;;;;;2.00;2.00;;;;;34.41;42.53;97756.84;6048213;28;96732;-56
2024/02/24 10:41:42;;;;;;;;;3.00;3.00;;;;;33.15;46.05;97759.38;6025731;28;96296;-54
2024/02/24 10:44:45;;;;;;;;;2.00;2.00;;;;;32.53;46.41;97771.59;6046123;28;96399;-54
2024/02/24 10:47:48;;;;;;;;;4.00;3.00;;;;;31.23;49.45;97774.31;6046977;28;96529;-54
2024/02/24 10:50:56;;;;;;;;;3.20;2.80;;;;;31.20;50.54;97772.31;6047358;28;96194;-54
2024/02/24 10:54:05;;;;;;;;;2.00;2.00;;;;;30.92;51.02;97770.84;6046575;28;96917;-54
2024/02/24 10:57:10;;;;;;;;;3.00;3.00;;;;;30.50;52.61;97775.91;6039724;28;96341;-54
2024/02/24 11:00:29;;;;;;;;;4.00;4.00;;;;;29.58;53.77;97786.50;6014066;29;96447;-54
2024/02/24 11:03:32;;;;;;;;;2.00;2.00;;;;;29.34;55.44;97786.91;6035107;28;96273;-54
2024/02/24 11:06:46;;;;;;;;;3.40;3.00;;;;;30.15;55.01;97781.03;6047626;28;97587;-54
2024/02/24 11:09:53;;;;;;;;;2.00;2.00;;;;;31.82;50.64;97785.16;6047205;28;97188;-54
2024/02/24 11:12:57;;;;;;;;;2.20;2.00;;;;;31.89;49.80;97794.75;6048467;28;96347;-54
2024/02/24 11:16:00;;;;;;;;;5.00;5.00;;;;;31.51;49.10;97794.06;6038130;28;96489;-54
2024/02/24 11:19:05;;;;;;;;;3.75;3.00;;;;;30.41;50.66;97808.75;6049086;28;96650;-55
2024/02/24 11:22:12;;;;;;;;;3.00;3.00;;;;;28.82;55.84;97809.75;6052128;28;96248;-55
2024/02/24 11:25:17;;;;;;;;;3.25;3.00;;;;;28.27;57.46;97805.44;6046570;28;96341;-54
2024/02/24 11:28:21;;;;;;;;;3.00;3.00;;;;;28.81;57.99;97797.84;6051899;28;97360;-54
2024/02/24 11:31:29;;;;;;;;;4.00;4.00;;;;;29.64;56.68;97809.22;6051162;28;96774;-55
2024/02/24 11:34:33;;;;;;;;;3.00;3.00;;;;;29.03;57.32;97826.00;6051640;28;96811;-54
2024/02/24 11:37:39;;;;;;;;;4.00;4.00;;;;;27.55;60.59;97811.31;6043228;28;96246;-54
2024/02/24 11:40:46;;;;;;;;;7.00;7.00;;;;;26.70;65.72;97828.38;6051917;28;96373;-54
2024/02/24 11:43:50;;;;;;;;;5.00;5.00;;;;;26.43;67.64;97817.34;6051346;28;96463;-55
2024/02/24 11:46:53;;;;;;;;;4.00;4.00;;;;;25.84;69.72;97837.25;6051906;28;96280;-56
2024/02/24 11:49:57;;;;;;;;;5.00;4.20;;;;;24.78;74.16;97833.59;6052282;28;96403;-55
2024/02/24 11:53:02;;;;;;;;;5.40;5.00;;;;;23.74;79.64;97839.94;6036812;28;96277;-55
2024/02/24 11:56:07;;;;;;;;;4.00;4.00;;;;;22.63;84.75;97826.50;6054192;28;96426;-54
2024/02/24 11:59:10;;;;;;;;;6.00;6.00;;;;;21.88;91.72;97849.75;6052032;28;97945;-54
2024/02/24 12:02:15;;;;;;;;;4.60;4.60;;;;;21.30;97.18;97834.41;6052084;28;96455;-54
2024/02/24 12:05:18;;;;;;;;;4.60;4.00;;;;;20.91;100.00;97832.44;6053220;28;96272;-54
2024/02/24 12:08:24;;;;;;;;;5.00;5.00;;;;;21.56;100.00;97842.72;6055265;28;96329;-53
2024/02/24 12:11:28;;;;;;;;;5.50;4.50;;;;;22.86;93.19;97841.72;6076313;28;96390;-54
2024/02/24 12:14:31;;;;;;;;;4.00;4.00;;;;;23.36;89.51;97849.31;6075375;28;96465;-54
2024/02/24 12:17:35;;;;;;;;;5.00;4.60;;;;;23.29;88.05;97856.13;6061205;28;96321;-54
2024/02/24 12:20:38;;;;;;;;;3.40;3.40;;;;;23.08;88.99;97849.72;6051450;28;96422;-54
2024/02/24 12:23:43;;;;;;;;;7.40;5.00;;;;;22.73;91.73;97856.41;6050599;28;96484;-53
2024/02/24 12:26:46;;;;;;;;;6.00;5.00;;;;;22.39;95.04;97869.03;6051389;28;96216;-52
2024/02/24 12:29:51;;;;;;;;;6.00;4.80;;;;;21.66;97.88;97839.69;6052282;28;96335;-52
2024/02/24 12:32:55;;;;;;;;;7.00;5.20;;;;;21.45;100.00;97868.81;6052057;28;96299;-55
2024/02/24 12:36:04;;;;;;;;;5.00;5.00;;;;;21.10;100.00;97876.84;6052004;28;96223;-52
2024/02/24 12:39:09;;;;;;;;;11.20;8.40;;;;;20.86;100.00;97879.13;6051588;28;96554;-53
2024/02/24 12:42:12;;;;;;;;;7.00;7.00;;;;;20.65;100.00;97881.56;6051767;28;96383;-54
2024/02/24 12:45:16;;;;;;;;;5.40;5.40;;;;;20.50;100.00;97890.16;6051343;28;97048;-52
2024/02/24 12:48:19;;;;;;;;;5.80;5.80;;;;;20.27;100.00;97892.03;6051541;28;96546;-53
2024/02/24 12:51:22;;;;;;;;;7.00;6.60;;;;;20.10;100.00;97897.31;6051666;28;96208;-53
2024/02/24 12:54:26;;;;;;;;;10.00;9.00;;;;;20.08;100.00;97896.84;6017273;28;98587;-53
2024/02/24 12:57:29;;;;;;;;;6.00;6.00;;;;;20.11;100.00;97889.94;6051225;28;96537;-53
2024/02/24 13:00:33;;;;;;;;;6.00;6.00;;;;;20.21;100.00;97897.91;6051277;28;96826;-53
2024/02/24 13:03:36;;;;;;;;;7.00;7.00;;;;;20.31;100.00;97898.53;6050679;28;96372;-53
2024/02/24 13:06:39;;;;;;;;;6.00;6.00;;;;;20.29;100.00;97897.97;6049563;28;97115;-54
2024/02/24 13:09:44;;;;;;;;;5.75;5.00;;;;;20.31;100.00;97906.75;6050948;28;96357;-53
2024/02/24 13:12:47;;;;;;;;;6.00;6.00;;;;;20.21;100.00;97915.16;6050807;28;97360;-53
2024/02/24 13:15:50;;;;;;;;;4.67;4.67;;;;;20.16;100.00;97917.19;6050255;28;96483;-53
2024/02/24 13:18:53;;;;;;;;;6.00;6.00;;;;;20.11;100.00;97923.56;6050415;28;96234;-54
2024/02/24 13:21:57;;;;;;;;;5.80;5.00;;;;;20.07;100.00;97929.97;6033838;28;96430;-54
2024/02/24 13:25:01;;;;;;;;;6.00;5.00;;;;;20.12;100.00;97924.38;6050037;28;96302;-52
2024/02/24 13:28:07;;;;;;;;;5.20;4.80;;;;;19.90;100.00;97917.72;6049969;28;96364;-52
2024/02/24 13:31:10;;;;;;;;;5.00;5.00;;;;;19.96;100.00;97925.81;6050639;28;96234;-53
2024/02/24 13:34:14;;;;;;;;;5.67;5.00;;;;;19.93;100.00;97927.25;6049905;28;96293;-53
2024/02/24 13:37:17;;;;;;;;;4.00;4.00;;;;;19.94;100.00;97930.81;6042064;28;96278;-52
2024/02/24 13:40:24;;;;;;;;;19.40;14.40;;;;;19.83;100.00;97927.47;6028098;28;96812;-53
2024/02/24 13:43:27;;;;;;;;;12.00;12.00;;;;;19.75;100.00;97937.16;6048453;28;96308;-54
2024/02/24 13:46:30;;;;;;;;;6.00;5.60;;;;;19.69;100.00;97943.88;6026951;29;96339;-53
2024/02/24 13:49:33;;;;;;;;;6.40;6.00;;;;;19.65;100.00;97945.56;6026561;29;96911;-53
2024/02/24 13:52:37;;;;;;;;;6.25;6.00;;;;;19.60;100.00;97944.84;6008846;29;97015;-52
2024/02/24 13:55:41;;;;;;;;;14.00;11.00;;;;;19.59;100.00;97951.47;6035601;28;96314;-52
2024/02/24 13:58:44;;;;;;;;;7.25;7.00;;;;;19.58;100.00;97949.84;6053419;28;96436;-54
2024/02/24 14:01:49;;;;;;;;;6.00;6.00;;;;;19.51;100.00;97958.41;6054925;28;96723;-53
2024/02/24 14:04:52;;;;;;;;;8.00;8.00;;;;;19.38;100.00;97953.72;6052249;28;96317;-53
2024/02/24 14:07:57;;;;;;;;;6.00;6.00;;;;;19.32;100.00;97953.00;6048484;28;96836;-54
2024/02/24 14:11:01;;;;;;;;;10.00;9.00;;;;;19.30;100.00;97946.22;6049308;28;97084;-53
2024/02/24 14:14:05;;;;;;;;;9.00;8.00;;;;;19.25;100.00;97960.81;6056029;28;96880;-52